Time;durP1;ratioP1;P1;durP2;ratioP2;P2;SDS_P1;SDS_P2;PMS_P1;PMS_P2;Temp;Humidity;BMP_temperature;BMP_pressure;BME280_temperature;BME280_humidity;BME280_pressure;Samples;Min_cycle;Max_cycle;Signal;HPM_P1;HPM_P2
2023/12/19 00:00:03;;;;;;;;;;;;;;;2.27;100.00;100345.31;5053784;28;20007;-76
2023/12/19 00:02:28;;;;;;;;;;;;;;;1.99;100.00;100350.81;5064903;28;19970;-82
2023/12/19 00:04:53;;;;;;;;;;;;;;;2.13;100.00;100358.50;5072319;28;19912;-76
2023/12/19 00:07:19;;;;;;;;;;;;;;;2.21;100.00;100351.91;5053556;28;19928;-76
2023/12/19 00:09:45;;;;;;;;;;;;;;;2.08;100.00;100365.16;5054246;28;19912;-78
2023/12/19 00:12:10;;;;;;;;;;;;;;;2.24;100.00;100345.25;5071650;28;19924;-77
2023/12/19 00:14:36;;;;;;;;;;;;;;;2.22;100.00;100354.44;5053700;28;19924;-79
2023/12/19 00:17:01;;;;;;;;;;;;;;;2.20;100.00;100366.13;5071216;28;19966;-76
2023/12/19 00:19:26;;;;;;;;;;;;;;;2.34;100.00;100361.25;5053956;28;19916;-76
2023/12/19 00:21:52;;;;;;;;;;;;;;;2.24;100.00;100369.53;5071717;28;19924;-76
2023/12/19 00:24:17;;;;;;;;;;;;;;;2.28;100.00;100374.56;5053176;28;20313;-78
2023/12/19 00:26:42;;;;;;;;;;;;;;;2.21;100.00;100384.50;5053742;28;19916;-77
2023/12/19 00:29:08;;;;;;;;;;;;;;;2.16;100.00;100384.44;5053787;28;21884;-77
2023/12/19 00:31:33;;;;;;;;;;;;;;;2.11;100.00;100380.22;5070812;28;19920;-86
2023/12/19 00:33:58;;;;;;;;;;;;;;;2.04;100.00;100388.50;5071067;28;19921;-75
2023/12/19 00:36:23;;;;;;;;;;;;;;;2.25;100.00;100368.69;5070993;28;19916;-75
2023/12/19 00:38:49;;;;;;;;;;;;;;;2.25;100.00;100376.22;5071518;28;19921;-82
2023/12/19 00:41:15;;;;;;;;;;;;;;;1.86;100.00;100391.59;5053360;28;19912;-75
2023/12/19 00:43:41;;;;;;;;;;;;;;;1.90;100.00;100384.97;5053189;28;19920;-75
2023/12/19 00:46:06;;;;;;;;;;;;;;;1.97;100.00;100380.03;5052679;28;19912;-80
2023/12/19 00:48:32;;;;;;;;;;;;;;;1.89;100.00;100384.13;5052975;28;19924;-76
2023/12/19 00:50:57;;;;;;;;;;;;;;;1.77;100.00;100388.97;5070556;28;19955;-77
2023/12/19 00:53:23;;;;;;;;;;;;;;;2.09;100.00;100366.81;5052908;28;19974;-81
2023/12/19 00:55:48;;;;;;;;;;;;;;;1.93;100.00;100378.31;5070161;28;19920;-76
2023/12/19 00:58:13;;;;;;;;;;;;;;;1.92;100.00;100383.31;5070519;28;19916;-75
2023/12/19 01:00:39;;;;;;;;;;;;;;;2.03;100.00;100379.28;5070049;28;19920;-80
2023/12/19 01:03:04;;;;;;;;;;;;;;;1.90;100.00;100398.34;5070121;28;20392;-75
2023/12/19 01:05:29;;;;;;;;;;;;;;;1.98;100.00;100393.44;5052635;28;19920;-75
2023/12/19 01:07:54;;;;;;;;;;;;;;;1.82;100.00;100399.06;5069892;28;19912;-75
2023/12/19 01:10:20;;;;;;;;;;;;;;;1.70;100.00;100397.22;5069910;28;19920;-74
2023/12/19 01:12:46;;;;;;;;;;;;;;;2.00;100.00;100386.78;5070128;28;20013;-75
2023/12/19 01:15:11;;;;;;;;;;;;;;;1.75;100.00;100386.44;5069818;28;19917;-75
2023/12/19 01:17:36;;;;;;;;;;;;;;;1.93;100.00;100377.47;5049869;28;19921;-75
2023/12/19 01:20:02;;;;;;;;;;;;;;;1.95;100.00;100391.72;5051285;28;19963;-78
2023/12/19 01:22:27;;;;;;;;;;;;;;;1.37;100.00;100397.56;5069291;28;20317;-76
2023/12/19 01:24:52;;;;;;;;;;;;;;;1.65;100.00;100379.59;5052178;28;20322;-75
2023/12/19 01:27:18;;;;;;;;;;;;;;;1.70;100.00;100369.66;5051901;28;19959;-74
2023/12/19 01:29:43;;;;;;;;;;;;;;;1.73;100.00;100370.53;5051800;28;20301;-75
2023/12/19 01:32:08;;;;;;;;;;;;;;;1.61;100.00;100377.03;5067992;28;19916;-75
2023/12/19 01:34:33;;;;;;;;;;;;;;;1.54;100.00;100378.63;5069857;28;19916;-75
2023/12/19 01:36:59;;;;;;;;;;;;;;;1.74;100.00;100363.88;5052216;28;19924;-77
2023/12/19 01:39:24;;;;;;;;;;;;;;;1.48;100.00;100377.69;5051643;28;19920;-78
2023/12/19 01:41:50;;;;;;;;;;;;;;;1.29;100.00;100379.06;5070103;28;20010;-78
2023/12/19 01:44:18;;;;;;;;;;;;;;;1.56;100.00;100356.09;5052481;28;19925;-78
2023/12/19 01:46:44;;;;;;;;;;;;;;;1.65;100.00;100359.56;5070073;28;19920;-79
2023/12/19 01:49:10;;;;;;;;;;;;;;;1.42;100.00;100375.09;5070271;28;19930;-78
2023/12/19 01:51:35;;;;;;;;;;;;;;;1.76;100.00;100360.53;5050399;28;19917;-79
2023/12/19 01:54:02;;;;;;;;;;;;;;;1.37;100.00;100376.66;5069718;28;19916;-83
2023/12/19 01:56:27;;;;;;;;;;;;;;;1.35;100.00;100376.66;5068414;28;19986;-77
2023/12/19 01:58:53;;;;;;;;;;;;;;;1.26;100.00;100375.66;5051232;28;20406;-77
2023/12/19 02:01:19;;;;;;;;;;;;;;;1.38;100.00;100361.69;5069395;28;19917;-78
2023/12/19 02:03:45;;;;;;;;;;;;;;;1.45;100.00;100360.94;5052341;28;19960;-81
2023/12/19 02:06:10;;;;;;;;;;;;;;;1.25;100.00;100379.81;5052119;28;19974;-77
2023/12/19 02:08:35;;;;;;;;;;;;;;;1.43;100.00;100365.09;5069525;28;19923;-78
2023/12/19 02:11:01;;;;;;;;;;;;;;;1.23;100.00;100365.63;5052272;28;19929;-79
2023/12/19 02:13:26;;;;;;;;;;;;;;;1.07;100.00;100372.03;5050072;28;19923;-77
2023/12/19 02:15:51;;;;;;;;;;;;;;;1.17;100.00;100371.34;5051756;28;19920;-78
2023/12/19 02:18:18;;;;;;;;;;;;;;;1.22;100.00;100357.28;5051853;28;19931;-78
2023/12/19 02:20:43;;;;;;;;;;;;;;;1.18;100.00;100359.69;5050638;28;20337;-78
2023/12/19 02:23:12;;;;;;;;;;;;;;;1.30;100.00;100355.72;5069370;28;19920;-78
2023/12/19 02:25:37;;;;;;;;;;;;;;;1.16;100.00;100357.16;5063852;28;19955;-77
2023/12/19 02:28:02;;;;;;;;;;;;;;;0.98;100.00;100356.88;5051531;28;19956;-77
2023/12/19 02:30:28;;;;;;;;;;;;;;;1.22;100.00;100347.25;5051816;28;19924;-77
2023/12/19 02:32:53;;;;;;;;;;;;;;;1.13;100.00;100357.09;5067062;28;19927;-77
2023/12/19 02:35:18;;;;;;;;;;;;;;;0.99;100.00;100365.22;5051902;28;19920;-77
2023/12/19 02:37:43;;;;;;;;;;;;;;;1.41;100.00;100349.19;5068930;28;20315;-77
2023/12/19 02:40:10;;;;;;;;;;;;;;;1.17;100.00;100361.34;5050953;28;19927;-77
2023/12/19 02:43:02;;;;;;;;;;;;;;;1.24;100.00;100358.13;5051980;28;19924;-77
2023/12/19 02:45:31;;;;;;;;;;;;;;;1.05;100.00;100363.66;5052061;28;19942;-76
2023/12/19 02:47:58;;;;;;;;;;;;;;;0.93;100.00;100380.13;5068804;28;19916;-76
2023/12/19 02:50:23;;;;;;;;;;;;;;;1.07;100.00;100368.69;5049212;28;19920;-77
2023/12/19 02:52:49;;;;;;;;;;;;;;;1.07;100.00;100364.50;5051990;28;20390;-76
2023/12/19 02:55:14;;;;;;;;;;;;;;;1.12;100.00;100364.59;5051478;28;19923;-76
2023/12/19 02:57:39;;;;;;;;;;;;;;;1.09;100.00;100364.56;5069103;28;20352;-77
2023/12/19 03:00:05;;;;;;;;;;;;;;;0.98;100.00;100359.38;5051650;28;19924;-78
2023/12/19 03:02:31;;;;;;;;;;;;;;;0.87;100.00;100363.38;5069208;28;19922;-78
2023/12/19 03:04:56;;;;;;;;;;;;;;;1.31;100.00;100341.53;5069978;28;19921;-76
2023/12/19 03:07:21;;;;;;;;;;;;;;;0.95;100.00;100361.00;5069437;28;20341;-77
2023/12/19 03:09:47;;;;;;;;;;;;;;;1.05;100.00;100360.31;5054666;28;20383;-80
2023/12/19 03:12:12;;;;;;;;;;;;;;;1.26;100.00;100348.97;5072327;28;19920;-78
2023/12/19 03:14:37;;;;;;;;;;;;;;;1.03;100.00;100359.47;5055173;28;19970;-77
2023/12/19 03:17:03;;;;;;;;;;;;;;;1.31;100.00;100346.53;5072203;28;19917;-77
2023/12/19 03:19:29;;;;;;;;;;;;;;;0.78;100.00;100378.19;5072318;28;19963;-76
2023/12/19 03:21:54;;;;;;;;;;;;;;;0.72;100.00;100386.44;5072435;28;21281;-78
2023/12/19 03:24:20;;;;;;;;;;;;;;;1.01;100.00;100361.91;5072713;28;19920;-78
2023/12/19 03:26:45;;;;;;;;;;;;;;;1.24;100.00;100339.75;5054565;28;20005;-76
2023/12/19 03:29:10;;;;;;;;;;;;;;;1.11;100.00;100346.22;5072734;28;19930;-76
2023/12/19 03:31:36;;;;;;;;;;;;;;;1.15;100.00;100344.63;5072603;28;19966;-77
2023/12/19 03:34:02;;;;;;;;;;;;;;;1.05;100.00;100356.13;5054559;28;19917;-78
2023/12/19 03:36:28;;;;;;;;;;;;;;;1.09;100.00;100350.38;5072497;28;19931;-78
2023/12/19 03:38:53;;;;;;;;;;;;;;;0.79;100.00;100372.41;5072487;28;19917;-78
2023/12/19 03:41:18;;;;;;;;;;;;;;;1.11;100.00;100347.91;5054920;28;19923;-78
2023/12/19 03:43:44;;;;;;;;;;;;;;;1.35;100.00;100336.59;5055155;28;19924;-77
2023/12/19 03:46:10;;;;;;;;;;;;;;;0.77;100.00;100359.84;5071396;28;19916;-77
2023/12/19 03:48:35;;;;;;;;;;;;;;;0.99;100.00;100343.53;5072366;28;20011;-78
2023/12/19 03:51:01;;;;;;;;;;;;;;;0.92;100.00;100343.41;5072447;28;20450;-77
2023/12/19 03:53:26;;;;;;;;;;;;;;;0.99;100.00;100340.22;5071904;28;19916;-77
2023/12/19 03:55:58;;;;;;;;;;;;;;;1.02;100.00;100330.22;5072330;28;20267;-76
2023/12/19 03:58:23;;;;;;;;;;;;;;;1.05;100.00;100332.78;5071115;28;19927;-77
2023/12/19 04:00:49;;;;;;;;;;;;;;;1.19;100.00;100334.66;5072417;28;19920;-76
2023/12/19 04:03:14;;;;;;;;;;;;;;;1.08;100.00;100340.34;5071955;28;19917;-77
2023/12/19 04:05:39;;;;;;;;;;;;;;;0.89;100.00;100347.53;5071511;28;19916;-77
2023/12/19 04:08:05;;;;;;;;;;;;;;;1.12;100.00;100347.94;5072319;28;19974;-78
2023/12/19 04:10:30;;;;;;;;;;;;;;;1.16;100.00;100341.31;5054051;28;20321;-77
2023/12/19 04:12:55;;;;;;;;;;;;;;;0.93;100.00;100353.47;5054390;28;20298;-79
2023/12/19 04:15:21;;;;;;;;;;;;;;;0.71;100.00;100369.75;5052344;28;19920;-77
2023/12/19 04:17:46;;;;;;;;;;;;;;;0.69;100.00;100373.06;5054102;28;19925;-75
2023/12/19 04:20:12;;;;;;;;;;;;;;;0.83;100.00;100371.63;5053288;28;19923;-77
2023/12/19 04:22:38;;;;;;;;;;;;;;;0.90;100.00;100370.91;5054080;28;19923;-75
2023/12/19 04:25:03;;;;;;;;;;;;;;;0.77;100.00;100391.53;5053537;28;19916;-75
2023/12/19 04:27:29;;;;;;;;;;;;;;;0.60;100.00;100393.72;5053082;28;19982;-76
2023/12/19 04:29:56;;;;;;;;;;;;;;;0.40;100.00;100411.66;5071745;28;19924;-76
2023/12/19 04:32:21;;;;;;;;;;;;;;;0.32;100.00;100405.69;5053595;28;19924;-78
2023/12/19 04:34:47;;;;;;;;;;;;;;;0.41;100.00;100396.72;5053539;28;19912;-78
2023/12/19 04:37:12;;;;;;;;;;;;;;;0.47;100.00;100386.81;5070997;28;20007;-77
2023/12/19 04:39:37;;;;;;;;;;;;;;;0.62;100.00;100386.25;5053385;28;20006;-77
2023/12/19 04:42:06;;;;;;;;;;;;;;;0.55;100.00;100387.81;5066896;28;20010;-78
2023/12/19 04:44:32;;;;;;;;;;;;;;;0.77;100.00;100376.53;5069058;28;19924;-77
2023/12/19 04:46:58;;;;;;;;;;;;;;;0.53;100.00;100391.94;5069585;28;19927;-79
2023/12/19 04:49:23;;;;;;;;;;;;;;;0.52;100.00;100391.88;5069047;28;19965;-77
2023/12/19 04:51:48;;;;;;;;;;;;;;;0.48;100.00;100387.66;5068944;28;19932;-77
2023/12/19 04:54:13;;;;;;;;;;;;;;;0.35;100.00;100403.25;5051759;28;19916;-79
2023/12/19 04:56:39;;;;;;;;;;;;;;;0.64;100.00;100389.63;5069532;28;19960;-78
2023/12/19 04:59:04;;;;;;;;;;;;;;;0.63;100.00;100393.81;5051448;28;19928;-80
2023/12/19 05:01:29;;;;;;;;;;;;;;;0.44;100.00;100403.41;5069665;28;19920;-87
2023/12/19 05:03:55;;;;;;;;;;;;;;;0.27;100.00;100424.72;5051723;28;19916;-77
2023/12/19 05:06:20;;;;;;;;;;;;;;;0.64;100.00;100394.63;5051065;28;19933;-78
2023/12/19 05:08:45;;;;;;;;;;;;;;;0.47;100.00;100403.47;5068573;28;19916;-77
2023/12/19 05:11:11;;;;;;;;;;;;;;;0.33;100.00;100414.88;5051236;28;20304;-82
2023/12/19 05:13:36;;;;;;;;;;;;;;;0.51;100.00;100411.06;5068109;28;20346;-77
2023/12/19 05:16:12;;;;;;;;;;;;;;;0.51;100.00;100407.72;5051584;28;19924;-77
2023/12/19 05:18:37;;;;;;;;;;;;;;;0.30;100.00;100413.13;5068094;28;19916;-82
2023/12/19 05:21:03;;;;;;;;;;;;;;;0.72;100.00;100381.44;5050818;28;20393;-82
2023/12/19 05:23:28;;;;;;;;;;;;;;;0.72;100.00;100381.44;5050706;28;19920;-81
2023/12/19 05:25:53;;;;;;;;;;;;;;;0.35;100.00;100409.09;5068304;28;20370;-78
2023/12/19 05:28:18;;;;;;;;;;;;;;;0.61;100.00;100407.09;5050681;28;19924;-79
2023/12/19 05:30:44;;;;;;;;;;;;;;;0.42;100.00;100408.38;5068121;28;19924;-77
2023/12/19 05:33:12;;;;;;;;;;;;;;;0.59;100.00;100406.22;5049756;28;19997;-76
2023/12/19 05:35:38;;;;;;;;;;;;;;;0.21;100.00;100427.09;5068835;28;19917;-83
2023/12/19 05:38:03;;;;;;;;;;;;;;;0.42;100.00;100420.03;5068645;28;19971;-80
2023/12/19 05:40:28;;;;;;;;;;;;;;;0.78;100.00;100398.22;5068140;28;19917;-77
2023/12/19 05:42:57;;;;;;;;;;;;;;;0.43;100.00;100421.72;5068321;28;19916;-77
2023/12/19 05:45:23;;;;;;;;;;;;;;;0.57;100.00;100408.69;5068872;28;19920;-77
2023/12/19 05:47:48;;;;;;;;;;;;;;;0.37;100.00;100412.47;5069368;28;19939;-78
2023/12/19 05:50:15;;;;;;;;;;;;;;;0.68;100.00;100408.88;5069557;28;19916;-80
2023/12/19 05:52:40;;;;;;;;;;;;;;;0.75;100.00;100411.50;5058416;28;20014;-78
2023/12/19 05:55:06;;;;;;;;;;;;;;;0.52;100.00;100431.91;5070041;28;20446;-80
2023/12/19 05:57:32;;;;;;;;;;;;;;;0.30;100.00;100452.31;5052441;28;19978;-82
2023/12/19 05:59:57;;;;;;;;;;;;;;;0.08;100.00;100452.66;5069875;28;19969;-78
2023/12/19 06:02:22;;;;;;;;;;;;;;;0.32;100.00;100438.19;5069508;28;20283;-81
2023/12/19 06:04:49;;;;;;;;;;;;;;;0.35;100.00;100433.25;5051836;28;20021;-79
2023/12/19 06:07:15;;;;;;;;;;;;;;;0.46;100.00;100419.28;5052170;28;19924;-81
2023/12/19 06:09:40;;;;;;;;;;;;;;;0.32;100.00;100421.50;5051891;28;19916;-82
2023/12/19 06:12:07;;;;;;;;;;;;;;;0.28;100.00;100427.25;5051493;28;20283;-80
2023/12/19 06:14:32;;;;;;;;;;;;;;;0.44;100.00;100414.25;5051811;28;19912;-80
2023/12/19 06:16:57;;;;;;;;;;;;;;;0.44;100.00;100424.25;5051347;28;19931;-81
2023/12/19 06:19:22;;;;;;;;;;;;;;;0.14;100.00;100447.81;5069040;28;20337;-80
2023/12/19 06:21:48;;;;;;;;;;;;;;;0.36;100.00;100444.91;5069427;28;19923;-80
2023/12/19 06:24:13;;;;;;;;;;;;;;;1.00;100.00;100425.31;5069425;28;20048;-82
2023/12/19 06:26:39;;;;;;;;;;;;;;;2.02;100.00;100405.19;5052079;28;19952;-86
2023/12/19 06:29:05;;;;;;;;;;;;;;;3.99;100.00;100374.31;5069764;28;19920;-81
2023/12/19 06:31:30;;;;;;;;;;;;;;;4.84;100.00;100395.56;5069471;28;20352;-79
2023/12/19 06:33:56;;;;;;;;;;;;;;;5.03;100.00;100435.06;5051401;28;19974;-81
2023/12/19 06:36:33;;;;;;;;;;;;;;;5.29;100.00;100468.69;5069444;28;19928;-78
2023/12/19 06:39:00;;;;;;;;;;;;;;;6.24;100.00;100480.41;5049073;28;19925;-79
2023/12/19 06:41:25;;;;;;;;;;;;;;;5.69;100.00;100536.78;5069860;28;19920;-79
2023/12/19 06:43:50;;;;;;;;;;;;;;;6.17;100.00;100562.06;5053815;28;19916;-80
2023/12/19 06:46:16;;;;;;;;;;;;;;;6.57;100.00;100578.00;5055513;28;19973;-79
2023/12/19 06:48:41;;;;;;;;;;;;;;;6.43;100.00;100610.84;5072956;28;19916;-79
2023/12/19 06:51:07;;;;;;;;;;;;;;;6.81;100.00;100620.88;5056010;28;20342;-78
2023/12/19 06:53:32;;;;;;;;;;;;;;;7.36;100.00;100644.28;5056606;28;19917;-79
2023/12/19 06:55:58;;;;;;;;;;;;;;;7.84;100.00;100659.22;5073514;28;19912;-80
2023/12/19 06:58:23;;;;;;;;;;;;;;;8.04;100.00;100687.78;5054648;28;19916;-80
2023/12/19 07:00:48;;;;;;;;;;;;;;;8.00;100.00;100706.38;5054653;28;19963;-82
2023/12/19 07:03:13;;;;;;;;;;;;;;;5.32;100.00;100802.25;5055304;28;19924;-79
2023/12/19 07:05:39;;;;;;;;;;;;;;;3.26;100.00;100869.56;5055219;28;20026;-79
2023/12/19 07:08:05;;;;;;;;;;;;;;;3.77;100.00;100834.25;5055011;28;19932;-79
2023/12/19 07:10:31;;;;;;;;;;;;;;;4.09;100.00;100810.38;5072835;28;20416;-80
2023/12/19 07:12:56;;;;;;;;;;;;;;;3.66;100.00;100814.03;5055020;28;20007;-82
2023/12/19 07:15:22;;;;;;;;;;;;;;;3.80;100.00;100811.69;5055497;28;19916;-79
2023/12/19 07:17:47;;;;;;;;;;;;;;;3.71;100.00;100802.34;5054615;28;19947;-80
2023/12/19 07:20:12;;;;;;;;;;;;;;;2.98;100.00;100830.59;5053167;28;20014;-81
2023/12/19 07:22:38;;;;;;;;;;;;;;;3.47;100.00;100812.06;5054749;28;19916;-79
2023/12/19 07:25:03;;;;;;;;;;;;;;;2.87;100.00;100829.59;5055027;28;20448;-81
2023/12/19 07:27:29;;;;;;;;;;;;;;;2.97;100.00;100816.34;5054560;28;19916;-81
2023/12/19 07:29:54;;;;;;;;;;;;;;;3.49;100.00;100778.59;5054822;28;20354;-80
2023/12/19 07:32:20;;;;;;;;;;;;;;;3.14;100.00;100789.84;5054521;28;19944;-80
2023/12/19 07:34:46;;;;;;;;;;;;;;;3.14;100.00;100779.78;5055282;28;19947;-81
2023/12/19 07:37:11;;;;;;;;;;;;;;;3.14;100.00;100783.97;5072508;28;19938;-79
2023/12/19 07:39:37;;;;;;;;;;;;;;;3.34;100.00;100758.31;5053236;28;20351;-81
2023/12/19 07:42:02;;;;;;;;;;;;;;;3.05;100.00;100762.06;5072327;28;20407;-80
2023/12/19 07:44:28;;;;;;;;;;;;;;;3.50;100.00;100735.06;5054902;28;19917;-82
2023/12/19 07:46:54;;;;;;;;;;;;;;;3.44;100.00;100739.19;5054442;28;19920;-80
2023/12/19 07:49:19;;;;;;;;;;;;;;;3.59;100.00;100725.94;5071977;28;20037;-80
2023/12/19 07:51:44;;;;;;;;;;;;;;;3.66;100.00;100721.03;5054303;28;19916;-80
2023/12/19 07:54:10;;;;;;;;;;;;;;;4.01;100.00;100707.16;5054154;28;20305;-80
2023/12/19 07:56:39;;;;;;;;;;;;;;;4.06;100.00;100700.47;5071492;28;20464;-81
2023/12/19 07:59:04;;;;;;;;;;;;;;;3.85;100.00;100707.81;5071785;28;19927;-80
2023/12/19 08:01:29;;;;;;;;;;;;;;;4.02;100.00;100693.72;5071297;28;19920;-79
2023/12/19 08:03:55;;;;;;;;;;;;;;;3.85;100.00;100712.84;5072069;28;19920;-80
2023/12/19 08:06:20;;;;;;;;;;;;;;;4.57;100.00;100684.16;5071936;28;19959;-79
2023/12/19 08:08:49;;;;;;;;;;;;;;;4.33;100.00;100689.84;5071446;28;19972;-80
2023/12/19 08:11:16;;;;;;;;;;;;;;;4.04;100.00;100697.09;5053079;28;19928;-80
2023/12/19 08:13:42;;;;;;;;;;;;;;;3.94;100.00;100700.34;5070965;28;19923;-79
2023/12/19 08:16:07;;;;;;;;;;;;;;;4.17;100.00;100675.44;5072330;28;19925;-79
2023/12/19 08:18:32;;;;;;;;;;;;;;;4.23;100.00;100678.88;5071187;28;19977;-79
2023/12/19 08:20:58;;;;;;;;;;;;;;;4.29;100.00;100668.00;5071686;28;19916;-81
2023/12/19 08:23:23;;;;;;;;;;;;;;;4.39;100.00;100657.19;5072019;28;19917;-80
2023/12/19 08:25:48;;;;;;;;;;;;;;;4.45;100.00;100653.84;5071314;28;20058;-79
2023/12/19 08:28:14;;;;;;;;;;;;;;;4.14;100.00;100668.69;5053779;28;19917;-80
2023/12/19 08:30:40;;;;;;;;;;;;;;;4.44;100.00;100644.63;5053134;28;20013;-79
2023/12/19 08:33:05;;;;;;;;;;;;;;;4.34;100.00;100647.06;5053155;28;19978;-77
2023/12/19 08:35:30;;;;;;;;;;;;;;;4.64;100.00;100636.38;5053480;28;20535;-77
2023/12/19 08:37:56;;;;;;;;;;;;;;;4.92;100.00;100624.78;5052976;28;20423;-78
2023/12/19 08:40:21;;;;;;;;;;;;;;;4.76;100.00;100623.88;5052890;28;20340;-79
2023/12/19 08:42:48;;;;;;;;;;;;;;;4.80;100.00;100609.59;5069299;28;19917;-82
2023/12/19 08:45:17;;;;;;;;;;;;;;;4.72;100.00;100617.13;5069912;28;19921;-79
2023/12/19 08:47:44;;;;;;;;;;;;;;;5.05;100.00;100597.13;5052820;28;20003;-79
2023/12/19 08:50:10;;;;;;;;;;;;;;;4.60;100.00;100611.16;5053170;28;19916;-79
2023/12/19 08:52:38;;;;;;;;;;;;;;;4.93;100.00;100591.22;5069532;28;19922;-79
2023/12/19 08:55:07;;;;;;;;;;;;;;;4.87;100.00;100597.03;5054208;28;19916;-79
2023/12/19 08:57:34;;;;;;;;;;;;;;;5.03;100.00;100585.38;5070430;28;20408;-80
2023/12/19 08:59:59;;;;;;;;;;;;;;;5.20;100.00;100582.09;5053115;28;20360;-77
2023/12/19 09:02:24;;;;;;;;;;;;;;;5.29;100.00;100576.22;5068903;28;19921;-77
2023/12/19 09:04:49;;;;;;;;;;;;;;;5.23;100.00;100579.56;5053437;28;19963;-78
2023/12/19 09:07:15;;;;;;;;;;;;;;;5.14;100.00;100579.56;5052840;28;19975;-79
2023/12/19 09:09:40;;;;;;;;;;;;;;;5.52;100.00;100561.16;5070386;28;20383;-79
2023/12/19 09:12:06;;;;;;;;;;;;;;;5.58;100.00;100549.41;5051345;28;19990;-79
2023/12/19 09:14:31;;;;;;;;;;;;;;;5.76;100.00;100546.06;5052198;28;19920;-78
2023/12/19 09:16:56;;;;;;;;;;;;;;;5.81;100.00;100532.59;5052667;28;19971;-78
2023/12/19 09:19:21;;;;;;;;;;;;;;;5.99;100.00;100520.00;5052445;28;19965;-77
2023/12/19 09:21:47;;;;;;;;;;;;;;;5.82;100.00;100526.69;5070089;28;19959;-77
2023/12/19 09:24:12;;;;;;;;;;;;;;;6.17;100.00;100518.31;5052642;28;19943;-78
2023/12/19 09:26:38;;;;;;;;;;;;;;;6.24;100.00;100514.94;5070366;28;19916;-79
2023/12/19 09:29:04;;;;;;;;;;;;;;;6.26;100.00;100518.31;5052591;28;19916;-78
2023/12/19 09:31:30;;;;;;;;;;;;;;;6.10;100.00;100528.41;5050689;28;20070;-80
2023/12/19 09:33:55;;;;;;;;;;;;;;;6.16;100.00;100527.56;5070143;28;19943;-80
2023/12/19 09:36:21;;;;;;;;;;;;;;;6.11;100.00;100527.59;5052298;28;20295;-80
2023/12/19 09:38:46;;;;;;;;;;;;;;;6.36;100.00;100515.72;5052856;28;19924;-80
2023/12/19 09:41:12;;;;;;;;;;;;;;;6.48;100.00;100508.13;5052555;28;19916;-80
2023/12/19 09:43:37;;;;;;;;;;;;;;;6.76;100.00;100504.66;5052366;28;20439;-80
2023/12/19 09:46:02;;;;;;;;;;;;;;;6.61;100.00;100514.00;5051787;28;19990;-80
2023/12/19 09:48:32;;;;;;;;;;;;;;;6.86;100.00;100503.78;5052605;28;19974;-80
2023/12/19 09:51:00;;;;;;;;;;;;;;;6.81;100.00;100510.53;5065365;28;19916;-80
2023/12/19 09:53:27;;;;;;;;;;;;;;;6.70;100.00;100519.00;5070290;28;19917;-79
2023/12/19 09:55:52;;;;;;;;;;;;;;;6.95;100.00;100510.50;5051985;28;19916;-78
2023/12/19 09:58:18;;;;;;;;;;;;;;;7.06;100.00;100520.53;5052294;28;19980;-79
2023/12/19 10:00:46;;;;;;;;;;;;;;;7.16;100.00;100515.44;5051821;28;19916;-79
2023/12/19 10:03:12;;;;;;;;;;;;;;;7.01;100.00;100523.91;5052405;28;19981;-79
2023/12/19 10:05:37;;;;;;;;;;;;;;;7.08;100.00;100531.47;5051552;28;20320;-80
2023/12/19 10:08:03;;;;;;;;;;;;;;;6.98;100.00;100529.00;5069865;28;19923;-79
2023/12/19 10:10:47;;;;;;;;;;;;;;;7.26;100.00;100527.16;5069056;28;19925;-80
2023/12/19 10:13:24;;;;;;;;;;;;;;;7.14;100.00;100536.50;5068910;28;19958;-77
2023/12/19 10:15:58;;;;;;;;;;;;;;;7.23;100.00;100529.69;5068555;28;20019;-81
2023/12/19 10:18:23;;;;;;;;;;;;;;;7.18;100.00;100530.56;5053217;28;20014;-80
2023/12/19 10:20:49;;;;;;;;;;;;;;;7.39;100.00;100531.28;5055691;28;19960;-78
2023/12/19 10:23:20;;;;;;;;;;;;;;;7.48;100.00;100545.59;4362749;28;10000807;-78
2023/12/19 10:25:51;;;;;;;;;;;;;;;7.43;100.00;100532.94;5014603;28;20488;-78
2023/12/19 10:28:16;;;;;;;;;;;;;;;7.35;100.00;100539.75;5014808;28;20375;-78
2023/12/19 10:30:42;;;;;;;;;;;;;;;7.67;100.00;100535.31;5016613;28;19924;-79
2023/12/19 10:33:08;;;;;;;;;;;;;;;7.63;100.00;100530.28;5048132;28;19924;-79
2023/12/19 10:35:37;;;;;;;;;;;;;;;7.70;100.00;100526.88;5032311;28;19925;-81
2023/12/19 10:38:02;;;;;;;;;;;;;;;7.59;100.00;100538.75;5014947;28;19920;-80
2023/12/19 10:40:27;;;;;;;;;;;;;;;7.48;100.00;100533.78;5034196;28;19927;-79
2023/12/19 10:42:56;;;;;;;;;;;;;;;7.62;100.00;100526.09;5032702;28;19924;-77
2023/12/19 10:45:23;;;;;;;;;;;;;;;7.67;100.00;100524.34;5016172;28;19913;-81
2023/12/19 10:47:48;;;;;;;;;;;;;;;7.87;100.00;100517.44;5047288;28;20643;-78
2023/12/19 10:50:13;;;;;;;;;;;;;;;7.86;100.00;100529.25;5030785;28;19951;-76
2023/12/19 10:52:40;;;;;;;;;;;;;;;7.96;100.00;100521.59;5015580;28;20411;-77
2023/12/19 10:55:17;;;;;;;;;;;;;;;7.93;100.00;100527.53;5018233;28;19921;-79
2023/12/19 10:57:46;;;;;;;;;;;;;;;7.92;100.00;100525.84;5053125;28;19917;-79
2023/12/19 11:00:13;;;;;;;;;;;;;;;8.11;100.00;100524.84;5053984;28;19917;-79
2023/12/19 11:02:51;;;;;;;;;;;;;;;8.14;100.00;100529.03;5052922;28;19913;-79
2023/12/19 11:05:25;;;;;;;;;;;;;;;8.25;100.00;100512.91;5052902;28;19940;-81
2023/12/19 11:07:51;;;;;;;;;;;;;;;8.60;100.00;100500.69;5052734;28;20371;-80
2023/12/19 11:10:18;;;;;;;;;;;;;;;8.33;100.00;100516.22;5054052;28;19970;-79
2023/12/19 11:12:43;;;;;;;;;;;;;;;8.46;100.00;100511.81;5053789;28;19924;-80
2023/12/19 11:15:09;;;;;;;;;;;;;;;8.42;100.00;100508.50;5052762;28;20310;-79
2023/12/19 11:17:53;;;;;;;;;;;;;;;8.62;100.00;100504.06;5050421;28;19947;-78
2023/12/19 11:20:24;;;;;;;;;;;;;;;8.49;100.00;100510.13;5053986;28;19917;-79
2023/12/19 11:23:03;;;;;;;;;;;;;;;8.53;100.00;100532.03;5050764;28;19923;-80
2023/12/19 11:25:34;;;;;;;;;;;;;;;8.66;100.00;100523.44;5051955;28;19924;-79
2023/12/19 11:28:03;;;;;;;;;;;;;;;8.54;100.00;100540.47;5052708;28;20002;-79
2023/12/19 11:30:32;;;;;;;;;;;;;;;8.61;100.00;100532.81;5052235;28;19939;-80
2023/12/19 11:33:03;;;;;;;;;;;;;;;8.73;100.00;100549.56;5053925;28;20020;-80
2023/12/19 11:35:29;;;;;;;;;;;;;;;8.85;100.00;100548.56;5052829;28;19916;-79
2023/12/19 11:38:13;;;;;;;;;;;;;;;8.79;100.00;100563.84;5053956;28;19974;-80
2023/12/19 11:40:44;;;;;;;;;;;;;;;8.85;100.00;100564.63;5052828;28;19923;-80
2023/12/19 11:43:10;;;;;;;;;;;;;;;9.02;100.00;100566.94;5052080;28;19975;-79
2023/12/19 11:45:35;;;;;;;;;;;;;;;9.01;100.00;100577.97;5053561;28;19917;-80
2023/12/19 11:48:27;;;;;;;;;;;;;;;8.93;100.00;100587.34;5055004;28;19920;-80
2023/12/19 11:50:52;;;;;;;;;;;;;;;9.00;100.00;100605.00;5055155;28;19968;-82
2023/12/19 11:53:21;;;;;;;;;;;;;;;9.11;100.00;100618.38;5055124;28;19974;-79
2023/12/19 11:55:47;;;;;;;;;;;;;;;9.10;100.00;100614.19;5073095;28;20370;-79
2023/12/19 11:58:13;;;;;;;;;;;;;;;9.15;100.00;100619.22;5072390;28;19916;-78
2023/12/19 12:00:38;;;;;;;;;;;;;;;9.22;100.00;100621.66;5053887;28;20368;-79
2023/12/19 12:03:07;;;;;;;;;;;;;;;9.18;100.00;100635.22;5073519;28;20063;-78
2023/12/19 12:05:32;;;;;;;;;;;;;;;9.28;100.00;100635.97;5055880;28;19944;-77
2023/12/19 12:07:58;;;;;;;;;;;;;;;9.39;100.00;100639.19;5055459;28;19959;-78
2023/12/19 12:10:23;;;;;;;;;;;;;;;9.36;100.00;100672.22;5055569;28;19928;-79
2023/12/19 12:12:49;;;;;;;;;;;;;;;9.31;100.00;100677.34;5055027;28;19923;-78
2023/12/19 12:15:17;;;;;;;;;;;;;;;9.47;100.00;100680.53;5073211;28;19925;-78
2023/12/19 12:17:44;;;;;;;;;;;;;;;9.58;100.00;100684.66;5054113;28;20007;-77
2023/12/19 12:20:09;;;;;;;;;;;;;;;9.51;100.00;100689.78;5072556;28;19999;-80
2023/12/19 12:22:35;;;;;;;;;;;;;;;9.94;100.00;100679.94;5054203;28;21291;-78
2023/12/19 12:25:00;;;;;;;;;;;;;;;9.75;100.00;100702.19;5054594;28;19916;-80
2023/12/19 12:27:30;;;;;;;;;;;;;;;9.88;100.00;100703.72;5054020;28;20003;-81
2023/12/19 12:29:56;;;;;;;;;;;;;;;9.82;100.00;100708.03;5054306;28;19916;-78